Time;durP1;ratioP1;P1;durP2;ratioP2;P2;SDS_P1;SDS_P2;PMS_P1;PMS_P2;Temp;Humidity;BMP_temperature;BMP_pressure;BME280_temperature;BME280_humidity;BME280_pressure;Samples;Min_cycle;Max_cycle;Signal;HPM_P1;HPM_P2
2022/01/04 00:00:34;;;;;;;19.30;8.83;;;;;;;5.54;98.42;99109.66;1787586;80;27468;-73
2022/01/04 00:03:02;;;;;;;18.55;8.45;;;;;;;5.54;98.46;99108.87;1787716;79;25408;-74
2022/01/04 00:05:29;;;;;;;16.30;8.20;;;;;;;5.53;98.47;99117.45;1787645;80;25442;-74
2022/01/04 00:07:56;;;;;;;16.95;9.00;;;;;;;5.54;98.57;99111.55;1787646;80;25421;-72
2022/01/04 00:10:25;;;;;;;20.70;8.38;;;;;;;5.54;98.54;99105.63;1761192;80;25627;-73
2022/01/04 00:15:39;;;;;;;20.88;8.20;;;;;;;5.53;98.58;99102.69;1787644;80;25179;-73
2022/01/04 00:18:04;;;;;;;21.65;8.98;;;;;;;5.54;98.51;99108.31;1787521;80;25602;-72
2022/01/04 00:20:31;;;;;;;25.08;8.50;;;;;;;5.54;98.47;99102.95;1787797;80;25547;-73
2022/01/04 00:22:57;;;;;;;20.12;8.85;;;;;;;5.54;98.54;99108.31;1787783;80;25429;-72
2022/01/04 00:25:23;;;;;;;15.98;8.15;;;;;;;5.55;98.62;99106.42;1787764;79;27934;-72
2022/01/04 00:27:50;;;;;;;17.87;8.38;;;;;;;5.54;98.50;99104.85;1760985;80;25718;-73
2022/01/04 00:30:16;;;;;;;16.25;8.48;;;;;;;5.54;98.53;99102.95;1787733;79;25523;-73
2022/01/04 00:32:43;;;;;;;16.95;7.90;;;;;;;5.54;98.59;99096.80;1787589;80;25843;-73
2022/01/04 00:35:10;;;;;;;15.78;7.22;;;;;;;5.55;98.58;99097.03;1744546;81;25454;-73
2022/01/04 00:37:37;;;;;;;15.53;8.30;;;;;;;5.55;98.56;99089.80;1762569;81;26926;-73
2022/01/04 00:40:06;;;;;;;20.02;9.90;;;;;;;5.55;98.43;99092.48;1762478;81;25633;-72
2022/01/04 00:42:32;;;;;;;23.07;8.97;;;;;;;5.56;98.56;99097.28;1743168;81;25433;-72
2022/01/04 00:44:59;;;;;;;18.07;8.03;;;;;;;5.56;98.54;99095.95;1762604;81;25547;-73
2022/01/04 00:47:39;;;;;;;18.95;8.10;;;;;;;5.56;98.59;99095.95;1742965;81;25459;-73
2022/01/04 00:49:54;;;;;;;20.00;8.58;;;;;;;5.56;98.60;99093.27;1760946;81;27339;-73
2022/01/04 00:52:20;;;;;;;16.25;7.90;;;;;;;5.57;98.75;99088.94;1762770;81;25597;-73
2022/01/04 00:54:47;;;;;;;22.48;8.30;;;;;;;5.58;98.73;99086.52;1743178;81;25412;-73
2022/01/04 00:57:13;;;;;;;19.80;8.13;;;;;;;5.58;98.62;99085.17;1742954;81;25911;-74
2022/01/04 00:59:39;;;;;;;15.10;7.42;;;;;;;5.59;98.67;99084.05;1762743;81;25572;-74
2022/01/04 01:02:06;;;;;;;16.55;7.08;;;;;;;5.59;98.78;99081.38;1762911;81;26877;-74
2022/01/04 01:04:32;;;;;;;21.80;8.23;;;;;;;5.61;98.66;99083.75;1762787;81;25406;-74
2022/01/04 01:06:59;;;;;;;18.35;7.87;;;;;;;5.62;98.62;99078.64;1762910;81;25222;-75
2022/01/04 01:09:30;;;;;;;17.95;7.62;;;;;;;5.61;98.58;99071.68;1762894;81;25939;-75
2022/01/04 01:11:54;;;;;;;16.00;7.22;;;;;;;5.61;98.54;99068.44;1762557;81;25461;-74
2022/01/04 01:14:20;;;;;;;21.10;8.33;;;;;;;5.63;98.43;99070.03;1762850;81;27974;-74
2022/01/04 01:16:47;;;;;;;18.85;8.00;;;;;;;5.62;98.37;99063.89;1762730;81;25563;-74
2022/01/04 01:19:13;;;;;;;22.50;8.40;;;;;;;5.60;98.30;99058.83;1762834;81;25436;-74
2022/01/04 01:21:40;;;;;;;17.20;8.53;;;;;;;5.60;98.19;99060.69;1762850;81;25394;-74
2022/01/04 01:24:07;;;;;;;20.30;7.92;;;;;;;5.57;98.10;99057.30;1762870;81;25441;-73
2022/01/04 01:26:34;;;;;;;14.60;8.08;;;;;;;5.55;97.97;99060.29;1763120;81;28059;-73
2022/01/04 01:29:00;;;;;;;18.70;7.08;;;;;;;5.54;98.05;99057.91;1763203;81;25412;-73
2022/01/04 01:31:28;;;;;;;18.37;8.38;;;;;;;5.52;98.03;99064.13;1763138;81;25453;-73
2022/01/04 01:33:56;;;;;;;17.67;8.33;;;;;;;5.50;97.99;99058.26;1762802;81;25498;-74
2022/01/04 01:36:23;;;;;;;14.47;7.78;;;;;;;5.47;97.94;99058.33;1762889;81;25557;-74
2022/01/04 01:38:49;;;;;;;14.53;7.55;;;;;;;5.45;97.84;99046.31;1762832;81;27339;-74
2022/01/04 01:41:16;;;;;;;19.30;7.95;;;;;;;5.41;97.71;99041.58;1762754;81;25458;-74
2022/01/04 01:43:42;;;;;;;23.35;7.87;;;;;;;5.37;97.66;99034.44;1743117;81;25495;-74
2022/01/04 01:46:09;;;;;;;17.02;7.58;;;;;;;5.33;97.51;99033.45;1762731;81;25387;-73
2022/01/04 01:48:36;;;;;;;20.35;7.67;;;;;;;5.28;97.49;99034.91;1762876;81;25414;-73
2022/01/04 01:51:03;;;;;;;14.87;7.53;;;;;;;5.23;97.36;99035.84;1762884;81;27359;-73
2022/01/04 01:53:30;;;;;;;21.12;8.45;;;;;;;5.19;97.54;99037.53;1762716;81;25610;-73
2022/01/04 01:55:56;;;;;;;22.45;8.48;;;;;;;5.16;97.48;99028.75;1762800;81;25407;-73
2022/01/04 01:58:23;;;;;;;14.73;7.60;;;;;;;5.12;97.54;99029.12;1762829;81;25528;-73
2022/01/04 02:00:50;;;;;;;18.10;7.22;;;;;;;5.08;97.67;99034.30;1762828;81;25215;-73
2022/01/04 02:03:16;;;;;;;19.92;8.73;;;;;;;5.06;97.76;99021.75;1743094;81;27185;-73
2022/01/04 02:05:43;;;;;;;17.37;7.10;;;;;;;5.04;97.82;99029.31;1762703;81;25565;-73
2022/01/04 02:08:12;;;;;;;20.92;7.85;;;;;;;5.02;97.81;99032.81;1762815;81;25417;-73
2022/01/04 02:10:39;;;;;;;19.17;6.77;;;;;;;4.99;97.82;99028.87;1763023;81;25410;-73
2022/01/04 02:13:06;;;;;;;21.60;7.87;;;;;;;4.98;97.93;99026.48;1762889;81;25562;-72
2022/01/04 02:15:33;;;;;;;19.62;7.72;;;;;;;4.95;97.95;99027.88;1762784;81;28067;-73
2022/01/04 02:18:00;;;;;;;18.75;6.95;;;;;;;4.94;97.73;99023.63;1743160;81;25720;-72
2022/01/04 02:20:26;;;;;;;19.73;6.87;;;;;;;4.92;97.94;99031.70;1762719;81;25471;-72
2022/01/04 02:22:54;;;;;;;19.15;8.40;;;;;;;4.90;98.03;99028.54;1762799;81;25883;-73
2022/01/04 02:25:21;;;;;;;16.57;7.22;;;;;;;4.90;98.06;99025.86;1762775;81;25609;-73
2022/01/04 02:27:48;;;;;;;17.50;7.30;;;;;;;4.89;98.35;99019.72;1762832;81;27340;-73
2022/01/04 02:30:17;;;;;;;18.32;6.78;;;;;;;4.90;98.38;99025.30;1743022;81;25644;-74
2022/01/04 02:32:46;;;;;;;19.20;6.70;;;;;;;4.93;98.53;99018.56;1762818;81;25614;-73
2022/01/04 02:35:16;;;;;;;19.98;7.30;;;;;;;4.95;98.65;99020.39;1783430;79;25331;-73
2022/01/04 02:37:43;;;;;;;18.85;7.58;;;;;;;4.97;98.62;99015.52;1796774;79;25613;-73
2022/01/04 02:40:10;;;;;;;15.38;6.53;;;;;;;4.98;98.60;99014.43;1796648;79;27362;-73
2022/01/04 02:42:38;;;;;;;14.45;6.67;;;;;;;4.99;98.60;99015.47;1796574;79;25442;-73
2022/01/04 02:45:06;;;;;;;15.32;6.53;;;;;;;5.01;98.45;99013.83;1796668;79;25650;-73
2022/01/04 02:47:33;;;;;;;15.55;6.42;;;;;;;5.01;98.32;99001.77;1771764;79;25661;-73
2022/01/04 02:50:00;;;;;;;20.52;7.05;;;;;;;5.00;98.32;99004.98;1796661;79;25434;-73
2022/01/04 02:52:27;;;;;;;17.57;6.75;;;;;;;5.00;98.34;99000.95;1771926;79;27327;-74
2022/01/04 02:54:53;;;;;;;13.88;6.40;;;;;;;5.01;98.27;99003.89;1796476;79;25557;-74
2022/01/04 02:57:20;;;;;;;22.40;7.22;;;;;;;5.02;98.15;99004.67;1796691;79;25470;-73
2022/01/04 02:59:46;;;;;;;17.60;6.05;;;;;;;5.01;98.03;98995.85;1796641;79;25466;-73
2022/01/04 03:02:13;;;;;;;14.47;6.67;;;;;;;5.01;98.01;98989.70;1796683;79;25577;-73
2022/01/04 03:04:39;;;;;;;14.87;5.87;;;;;;;5.00;97.98;98980.86;1796657;79;27328;-73
2022/01/04 03:07:06;;;;;;;14.65;6.83;;;;;;;4.99;97.91;98976.61;1796561;79;25637;-73
2022/01/04 03:09:32;;;;;;;13.20;5.92;;;;;;;4.99;97.92;98975.27;1796678;79;25613;-73
2022/01/04 03:11:59;;;;;;;17.67;6.85;;;;;;;5.00;97.91;98982.75;1796638;79;26009;-73
2022/01/04 03:14:26;;;;;;;15.50;6.42;;;;;;;4.99;97.86;98983.87;1796625;79;25577;-73
2022/01/04 03:16:52;;;;;;;13.80;6.67;;;;;;;5.00;97.83;98978.73;1796646;79;27427;-73
2022/01/04 03:19:19;;;;;;;19.10;6.30;;;;;;;4.98;97.72;98979.59;1796523;79;25623;-73
2022/01/04 03:21:45;;;;;;;14.65;5.80;;;;;;;4.95;97.60;98973.49;1796582;79;25468;-73
2022/01/04 03:24:15;;;;;;;13.90;5.80;;;;;;;4.94;97.61;98976.73;1796576;79;25505;-74
2022/01/04 03:26:42;;;;;;;16.17;5.90;;;;;;;4.94;97.68;98968.69;1796818;79;25624;-73
2022/01/04 03:29:11;;;;;;;14.68;6.22;;;;;;;4.94;97.65;98971.37;1796630;79;27322;-73
2022/01/04 03:31:39;;;;;;;15.58;6.65;;;;;;;4.93;97.57;98957.72;1796667;79;25406;-73
2022/01/04 03:34:06;;;;;;;11.28;5.92;;;;;;;4.93;97.32;98954.25;1796514;79;25448;-73
2022/01/04 03:36:33;;;;;;;17.67;6.62;;;;;;;4.89;97.14;98959.42;1796506;79;25562;-73
2022/01/04 03:39:04;;;;;;;16.20;6.25;;;;;;;4.86;97.05;98959.47;1796597;79;25412;-73
2022/01/04 03:41:30;;;;;;;14.70;6.22;;;;;;;4.83;96.89;98956.61;1796598;79;28152;-73
2022/01/04 03:43:57;;;;;;;14.18;6.22;;;;;;;4.80;96.97;98960.70;1796525;79;25449;-73
2022/01/04 03:46:24;;;;;;;14.78;6.67;;;;;;;4.78;97.07;98959.41;1796605;79;25403;-73
2022/01/04 03:48:50;;;;;;;14.53;6.62;;;;;;;4.74;97.10;98952.52;1796585;79;25632;-73
2022/01/04 03:51:19;;;;;;;18.00;6.45;;;;;;;4.74;97.23;98964.58;1796650;79;25554;-73
2022/01/04 03:53:45;;;;;;;18.67;6.47;;;;;;;4.72;97.26;98957.40;1796619;79;27491;-73
2022/01/04 03:56:12;;;;;;;15.13;6.37;;;;;;;4.70;97.22;98952.89;1796541;79;25593;-73
2022/01/04 03:58:38;;;;;;;15.90;6.80;;;;;;;4.69;97.36;98953.98;1771690;79;25481;-73
2022/01/04 04:01:05;;;;;;;15.38;5.92;;;;;;;4.67;97.33;98953.50;1796639;79;25412;-73
2022/01/04 04:03:32;;;;;;;16.23;6.33;;;;;;;4.68;97.45;98959.08;1796644;79;25475;-73
2022/01/04 04:05:59;;;;;;;11.97;6.47;;;;;;;4.65;97.44;98953.02;1796528;79;27333;-73
2022/01/04 04:08:26;;;;;;;14.23;7.10;;;;;;;4.65;97.55;98954.35;1796535;79;25468;-73
2022/01/04 04:10:53;;;;;;;15.18;6.37;;;;;;;4.65;97.54;98948.99;1771554;79;25406;-73
2022/01/04 04:13:21;;;;;;;15.55;6.53;;;;;;;4.65;97.53;98946.31;1796634;79;25637;-73
2022/01/04 04:15:48;;;;;;;13.30;6.17;;;;;;;4.63;97.42;98939.92;1796755;79;25400;-73
2022/01/04 04:18:16;;;;;;;16.52;6.35;;;;;;;4.62;97.46;98942.34;1796607;79;28041;-72
2022/01/04 04:20:43;;;;;;;11.43;6.62;;;;;;;4.61;97.44;98944.77;1796600;79;25657;-72
2022/01/04 04:23:10;;;;;;;17.92;6.95;;;;;;;4.61;97.37;98935.94;1796772;79;25549;-72
2022/01/04 04:25:37;;;;;;;13.55;5.85;;;;;;;4.60;97.33;98930.36;1796655;79;25400;-72
2022/01/04 04:28:05;;;;;;;14.78;6.37;;;;;;;4.57;97.12;98941.67;1796715;79;25557;-73
2022/01/04 04:30:31;;;;;;;12.63;6.87;;;;;;;4.55;97.08;98939.84;1796639;79;27337;-73
2022/01/04 04:32:57;;;;;;;10.28;5.75;;;;;;;4.49;97.06;98941.30;1796518;79;25606;-73
2022/01/04 04:35:24;;;;;;;19.23;6.45;;;;;;;4.46;97.14;98937.88;1796499;79;25406;-73
2022/01/04 04:37:50;;;;;;;14.30;6.10;;;;;;;4.42;97.12;98938.77;1796693;79;25440;-73
2022/01/04 04:40:17;;;;;;;12.37;6.83;;;;;;;4.40;97.16;98938.28;1796683;79;25594;-73
2022/01/04 04:42:43;;;;;;;17.50;6.05;;;;;;;4.38;97.28;98940.48;1796606;79;27452;-73
2022/01/04 04:45:10;;;;;;;13.15;6.40;;;;;;;4.35;97.37;98935.16;1796503;79;25606;-73
2022/01/04 04:47:37;;;;;;;14.50;6.28;;;;;;;4.31;97.39;98935.53;1796532;79;25594;-73
2022/01/04 04:50:05;;;;;;;14.95;5.90;;;;;;;4.28;97.45;98930.77;1796560;79;25653;-73
2022/01/04 04:52:32;;;;;;;15.60;5.60;;;;;;;4.25;97.47;98924.12;1772004;79;25424;-72
2022/01/04 04:54:59;;;;;;;13.00;6.25;;;;;;;4.21;97.61;98916.45;1796588;79;28034;-72
2022/01/04 04:57:25;;;;;;;19.92;7.00;;;;;;;4.20;97.49;98924.78;1796505;79;25452;-72
2022/01/04 04:59:51;;;;;;;16.07;6.87;;;;;;;4.17;97.58;98924.03;1796552;79;25519;-72
2022/01/04 05:02:18;;;;;;;19.23;6.67;;;;;;;4.15;97.69;98916.86;1796500;79;26063;-72
2022/01/04 05:04:44;;;;;;;12.78;6.55;;;;;;;4.13;97.72;98909.13;1796588;79;25423;-73
2022/01/04 05:07:10;;;;;;;14.85;6.08;;;;;;;4.11;97.73;98922.02;1796477;79;27310;-73
2022/01/04 05:09:37;;;;;;;20.05;7.40;;;;;;;4.12;97.93;98912.91;1796476;79;25452;-73
2022/01/04 05:12:05;;;;;;;14.68;6.83;;;;;;;4.11;97.96;98914.77;1796555;79;25521;-73
2022/01/04 05:14:33;;;;;;;15.20;7.03;;;;;;;4.11;98.04;98900.61;1796800;79;25649;-73
2022/01/04 05:16:59;;;;;;;15.98;6.67;;;;;;;4.13;98.06;98906.45;1796772;79;25655;-73
2022/01/04 05:19:25;;;;;;;22.58;6.95;;;;;;;4.14;98.06;98904.03;1796680;79;27338;-73
2022/01/04 05:21:52;;;;;;;14.78;6.78;;;;;;;4.14;98.19;98904.03;1796429;79;25666;-73
2022/01/04 05:24:18;;;;;;;16.73;7.65;;;;;;;4.17;98.12;98907.98;1796548;79;25715;-73
2022/01/04 05:26:44;;;;;;;11.88;6.83;;;;;;;4.17;98.19;98908.79;1796489;79;25640;-73
2022/01/04 05:29:11;;;;;;;13.88;7.05;;;;;;;4.18;98.21;98902.33;1796596;79;25600;-73
2022/01/04 05:31:37;;;;;;;17.82;7.67;;;;;;;4.19;98.25;98902.59;1796552;79;27325;-73
2022/01/04 05:34:03;;;;;;;13.35;6.55;;;;;;;4.19;98.35;98907.94;1796477;79;25384;-73
2022/01/04 05:36:30;;;;;;;14.00;6.78;;;;;;;4.19;98.34;98901.77;1772406;79;25404;-73
2022/01/04 05:38:56;;;;;;;18.90;7.75;;;;;;;4.19;98.42;98911.95;1762624;81;25543;-73
2022/01/04 05:41:23;;;;;;;16.75;7.62;;;;;;;4.19;98.42;98899.91;1762678;81;25445;-73
2022/01/04 05:43:49;;;;;;;18.12;7.58;;;;;;;4.20;98.57;98902.03;1762705;81;27959;-73
2022/01/04 05:46:16;;;;;;;15.80;6.95;;;;;;;4.23;98.62;98902.77;1762677;81;25681;-73
2022/01/04 05:48:43;;;;;;;15.48;7.30;;;;;;;4.25;98.87;98905.94;1762759;81;25416;-74
2022/01/04 05:51:09;;;;;;;19.52;8.33;;;;;;;4.23;98.71;98890.17;1762792;81;25528;-74
2022/01/04 05:53:36;;;;;;;14.60;7.53;;;;;;;4.24;98.71;98894.45;1762793;81;25583;-74
2022/01/04 05:56:03;;;;;;;16.17;6.83;;;;;;;4.25;98.75;98883.19;1762653;81;27477;-73
2022/01/04 05:58:30;;;;;;;15.10;7.15;;;;;;;4.27;98.77;98892.52;1762705;81;25457;-73
2022/01/04 06:00:56;;;;;;;13.90;6.87;;;;;;;4.30;98.90;98893.78;1762772;81;25550;-73
2022/01/04 06:03:22;;;;;;;15.88;7.05;;;;;;;4.31;98.93;98891.36;1762754;81;25510;-73
2022/01/04 06:05:49;;;;;;;16.02;6.85;;;;;;;4.32;98.98;98887.57;1762790;81;25752;-73
2022/01/04 06:08:15;;;;;;;12.30;7.20;;;;;;;4.35;98.97;98887.53;1762729;81;27329;-73
2022/01/04 06:10:43;;;;;;;18.05;7.17;;;;;;;4.37;98.99;98877.31;1762634;81;25385;-73
2022/01/04 06:15:40;;;;;;;12.13;7.58;;;;;;;4.40;99.10;98875.37;1762716;81;25903;-73
2022/01/04 06:18:05;;;;;;;11.63;7.60;;;;;;;4.41;98.98;98874.25;1742873;81;25633;-73
2022/01/04 06:20:32;;;;;;;16.80;7.10;;;;;;;4.41;98.86;98876.41;1762844;81;27939;-73
2022/01/04 06:22:58;;;;;;;16.57;7.95;;;;;;;4.42;98.63;98886.56;1762587;81;25594;-73
2022/01/04 06:25:25;;;;;;;16.35;7.35;;;;;;;4.40;98.64;98885.52;1762728;81;25404;-73
2022/01/04 06:27:53;;;;;;;18.50;8.28;;;;;;;4.39;98.54;98886.63;1762677;81;25486;-73
2022/01/04 06:30:23;;;;;;;13.40;7.77;;;;;;;4.39;98.54;98887.16;1763106;81;25461;-73
2022/01/04 06:32:49;;;;;;;16.67;8.13;;;;;;;4.38;98.51;98881.58;1762833;81;27321;-72
2022/01/04 06:35:16;;;;;;;13.75;7.40;;;;;;;4.37;98.42;98886.67;1762594;80;25615;-74
2022/01/04 06:37:45;;;;;;;12.70;7.90;;;;;;;4.34;98.39;98878.69;1762759;81;25619;-73
2022/01/04 06:40:13;;;;;;;14.33;8.43;;;;;;;4.33;98.42;98874.45;1762856;81;25402;-72
2022/01/04 06:42:39;;;;;;;17.82;8.03;;;;;;;4.29;98.36;98870.24;1762769;81;25426;-72
2022/01/04 06:45:06;;;;;;;16.77;7.72;;;;;;;4.28;98.19;98874.00;1762612;81;27329;-73
2022/01/04 06:47:33;;;;;;;17.57;8.88;;;;;;;4.24;98.22;98876.23;1762498;81;25661;-73
2022/01/04 06:49:59;;;;;;;16.70;8.25;;;;;;;4.22;98.24;98873.08;1743020;81;25720;-74
2022/01/04 06:52:26;;;;;;;15.53;8.83;;;;;;;4.20;98.30;98870.70;1762657;81;25630;-73
2022/01/04 06:54:52;;;;;;;16.10;8.48;;;;;;;4.18;98.46;98868.88;1762819;81;25474;-74
2022/01/04 06:57:19;;;;;;;18.30;9.88;;;;;;;4.17;98.44;98878.53;1770704;79;27089;-71
2022/01/04 06:59:45;;;;;;;15.88;8.68;;;;;;;4.15;98.74;98878.84;1781871;80;25722;-73
2022/01/04 07:02:13;;;;;;;17.20;9.50;;;;;;;4.16;98.97;98883.66;1793646;80;25717;-74
2022/01/04 07:04:40;;;;;;;18.35;8.68;;;;;;;4.15;99.04;98876.72;1794026;80;25621;-75
2022/01/04 07:07:06;;;;;;;20.20;10.10;;;;;;;4.15;99.33;98873.48;1793987;80;25680;-76
2022/01/04 07:09:33;;;;;;;18.30;9.75;;;;;;;4.16;99.39;98872.95;1793996;80;27320;-76
2022/01/04 07:11:59;;;;;;;21.95;10.72;;;;;;;4.15;99.33;98872.70;1793994;80;25652;-72
2022/01/04 07:14:26;;;;;;;17.30;9.38;;;;;;;4.16;99.50;98867.60;1794032;80;25740;-75
2022/01/04 07:16:52;;;;;;;18.42;9.00;;;;;;;4.16;99.54;98865.71;1762463;80;25787;-75
2022/01/04 07:19:19;;;;;;;15.03;9.38;;;;;;;4.17;99.76;98859.80;1794024;80;25759;-75
2022/01/04 07:21:45;;;;;;;21.48;10.68;;;;;;;4.19;99.87;98861.10;1794557;80;27439;-75
2022/01/04 07:24:12;;;;;;;19.10;8.93;;;;;;;4.20;99.96;98853.85;1794379;80;25732;-75
2022/01/04 07:26:39;;;;;;;21.75;9.43;;;;;;;4.21;100.00;98856.78;1793129;78;25683;-76
2022/01/04 07:29:05;;;;;;;16.67;9.85;;;;;;;4.21;100.00;98846.86;1793914;79;25320;-76
2022/01/04 07:31:32;;;;;;;21.20;10.18;;;;;;;4.25;100.00;98843.03;1761596;79;25822;-76
2022/01/04 07:33:59;;;;;;;20.30;9.83;;;;;;;4.26;100.00;98841.95;1761040;81;27939;-76
2022/01/04 07:36:29;;;;;;;15.78;9.25;;;;;;;4.28;100.00;98838.42;1762315;80;25728;-76
2022/01/04 07:38:55;;;;;;;17.47;10.23;;;;;;;4.29;100.00;98839.98;1765154;80;25642;-75
2022/01/04 07:41:22;;;;;;;17.82;9.73;;;;;;;4.31;100.00;98845.85;1764917;80;25913;-74
2022/01/04 07:43:49;;;;;;;16.42;10.13;;;;;;;4.31;100.00;98840.50;1765004;81;25707;-74
2022/01/04 07:46:16;;;;;;;18.82;10.38;;;;;;;4.32;100.00;98836.71;1764957;81;27369;-74
2022/01/04 07:48:43;;;;;;;22.48;10.65;;;;;;;4.33;100.00;98838.86;1749257;81;25749;-74
2022/01/04 07:51:11;;;;;;;18.25;10.13;;;;;;;4.32;100.00;98836.71;1771594;79;25378;-74
2022/01/04 07:53:37;;;;;;;23.95;10.95;;;;;;;4.34;100.00;98831.06;1798067;79;25636;-74
2022/01/04 07:56:04;;;;;;;19.70;10.98;;;;;;;4.37;100.00;98839.83;1798834;79;25704;-75
2022/01/04 07:58:31;;;;;;;21.25;10.35;;;;;;;4.37;100.00;98836.59;1782883;79;27297;-75
2022/01/04 08:00:58;;;;;;;22.32;11.12;;;;;;;4.38;100.00;98835.52;1798966;79;25239;-74
2022/01/04 08:03:24;;;;;;;20.88;11.15;;;;;;;4.38;100.00;98827.48;1799426;79;25613;-74
2022/01/04 08:05:51;;;;;;;18.75;10.85;;;;;;;4.37;100.00;98827.22;1799606;79;25563;-74
2022/01/04 08:08:17;;;;;;;21.37;11.00;;;;;;;4.36;100.00;98825.66;1798900;79;25680;-75
2022/01/04 08:10:46;;;;;;;19.30;11.00;;;;;;;4.37;100.00;98823.20;1799035;79;27872;-74
2022/01/04 08:13:12;;;;;;;19.73;11.43;;;;;;;4.37;100.00;98816.52;1799600;79;25270;-76
2022/01/04 08:15:39;;;;;;;20.60;11.08;;;;;;;4.38;100.00;98815.98;1799125;79;25611;-75
2022/01/04 08:18:06;;;;;;;20.82;11.95;;;;;;;4.39;100.00;98807.66;1798765;79;25606;-75
2022/01/04 08:20:32;;;;;;;21.12;11.33;;;;;;;4.41;100.00;98808.66;1798238;79;25628;-76
2022/01/04 08:22:59;;;;;;;21.70;11.28;;;;;;;4.43;100.00;98798.47;1798064;79;27328;-74
2022/01/04 08:25:26;;;;;;;26.15;11.88;;;;;;;4.45;100.00;98801.06;1798143;79;25436;-75
2022/01/04 08:27:52;;;;;;;21.73;11.95;;;;;;;4.46;100.00;98793.29;1798159;79;25680;-75
2022/01/04 08:30:19;;;;;;;22.10;11.38;;;;;;;4.47;100.00;98788.16;1799291;79;25456;-75
2022/01/04 08:32:46;;;;;;;17.70;10.63;;;;;;;4.48;100.00;98784.95;1798911;79;25594;-75
2022/01/04 08:35:12;;;;;;;22.80;12.37;;;;;;;4.52;100.00;98781.89;1798136;79;27509;-74
2022/01/04 08:37:40;;;;;;;21.70;12.23;;;;;;;4.53;100.00;98778.66;1781939;79;25624;-76
2022/01/04 08:40:08;;;;;;;23.12;11.68;;;;;;;4.57;100.00;98772.40;1798103;79;25589;-75
2022/01/04 08:42:36;;;;;;;24.10;12.15;;;;;;;4.62;100.00;98766.91;1797995;79;25595;-75
2022/01/04 08:45:06;;;;;;;19.02;11.85;;;;;;;4.67;100.00;98765.45;1798136;79;25703;-74
2022/01/04 08:47:33;;;;;;;19.45;11.30;;;;;;;4.71;100.00;98761.60;1782402;79;27328;-74
2022/01/04 08:49:59;;;;;;;21.97;11.93;;;;;;;4.75;100.00;98763.92;1798122;79;25618;-75
2022/01/04 08:52:27;;;;;;;24.65;11.83;;;;;;;4.78;100.00;98753.13;1798166;79;25375;-75
2022/01/04 08:54:53;;;;;;;24.82;12.90;;;;;;;4.79;100.00;98739.43;1798067;79;25684;-74
2022/01/04 08:57:20;;;;;;;22.32;13.20;;;;;;;4.83;100.00;98750.31;1798317;79;25689;-74
2022/01/04 08:59:47;;;;;;;23.50;12.18;;;;;;;4.86;100.00;98746.47;1798244;79;28015;-74
2022/01/04 09:02:14;;;;;;;22.15;12.63;;;;;;;4.88;100.00;98740.80;1798129;79;25485;-75
2022/01/04 09:04:40;;;;;;;24.45;12.23;;;;;;;4.92;100.00;98742.31;1798109;79;25570;-75
2022/01/04 09:07:08;;;;;;;21.48;12.45;;;;;;;4.93;100.00;98728.61;1798063;79;25666;-74
2022/01/04 09:09:35;;;;;;;23.75;13.65;;;;;;;4.99;100.00;98722.59;1798296;79;25720;-74
2022/01/04 09:12:01;;;;;;;25.52;13.03;;;;;;;5.03;100.00;98720.30;1798073;79;27326;-74
2022/01/04 09:14:41;;;;;;;25.65;13.53;;;;;;;5.13;100.00;98720.57;1781985;79;25764;-73
2022/01/04 09:19:41;;;;;;;22.80;12.70;;;;;;;5.33;100.00;98703.13;1799159;79;25540;-73
2022/01/04 09:22:08;;;;;;;25.95;13.00;;;;;;;5.46;100.00;98702.73;1798406;79;25409;-74
2022/01/04 09:24:34;;;;;;;23.50;13.13;;;;;;;5.53;100.00;98716.47;1798289;79;27326;-75
2022/01/04 09:27:05;;;;;;;24.85;13.05;;;;;;;5.58;100.00;98713.66;1781848;79;25769;-75
2022/01/04 09:29:30;;;;;;;21.65;12.30;;;;;;;5.65;100.00;98704.34;1782536;79;25676;-74
2022/01/04 09:31:57;;;;;;;21.95;12.63;;;;;;;5.73;100.00;98707.02;1798298;79;25390;-74
2022/01/04 09:34:24;;;;;;;20.77;12.28;;;;;;;5.78;100.00;98714.91;1782294;79;25661;-73
2022/01/04 09:36:50;;;;;;;21.87;13.30;;;;;;;5.85;100.00;98719.81;1784308;79;27365;-73
2022/01/04 09:39:21;;;;;;;22.00;12.45;;;;;;;5.86;100.00;98704.52;1797246;79;25451;-73
2022/01/04 09:41:49;;;;;;;21.23;12.05;;;;;;;5.87;99.70;98706.86;1797291;79;25623;-73
2022/01/04 09:44:16;;;;;;;23.07;11.25;;;;;;;5.84;99.37;98702.15;1797460;79;25842;-75
2022/01/04 09:46:43;;;;;;;20.05;12.35;;;;;;;5.84;99.33;98707.52;1796894;79;25735;-75
2022/01/04 09:49:11;;;;;;;18.07;11.70;;;;;;;5.83;99.23;98698.44;1797191;79;27375;-75
2022/01/04 09:51:42;;;;;;;19.45;11.53;;;;;;;5.83;99.17;98691.73;1797490;79;25636;-73
2022/01/04 09:54:09;;;;;;;18.50;12.28;;;;;;;5.84;99.26;98686.58;1797436;79;25625;-75
2022/01/04 09:56:35;;;;;;;21.95;12.15;;;;;;;5.86;99.39;98678.47;1797246;79;25938;-75
2022/01/04 09:59:03;;;;;;;23.83;11.80;;;;;;;5.89;99.49;98673.81;1797688;79;25616;-75
2022/01/04 10:01:38;;;;;;;21.87;11.73;;;;;;;5.92;99.35;98675.06;1797536;79;27312;-75
2022/01/04 10:04:07;;;;;;;17.77;11.35;;;;;;;5.93;99.25;98669.38;1797386;79;25411;-75
2022/01/04 10:06:34;;;;;;;18.25;11.97;;;;;;;5.95;99.11;98652.96;1797301;79;25733;-75
2022/01/04 10:09:11;;;;;;;19.48;10.88;;;;;;;5.96;98.97;98656.70;1797310;79;25633;-74
2022/01/04 10:11:44;;;;;;;20.10;10.53;;;;;;;6.00;98.79;98646.67;1797519;79;25637;-74
2022/01/04 10:14:34;;;;;;;15.78;9.83;;;;;;;6.04;99.16;98642.23;1797458;79;27380;-74
2022/01/04 10:17:06;;;;;;;14.50;9.88;;;;;;;6.05;98.62;98655.34;1795643;79;25864;-75
2022/01/04 10:19:40;;;;;;;15.08;9.60;;;;;;;6.07;98.73;98656.37;1738185;81;25817;-73
2022/01/04 10:22:30;;;;;;;16.02;8.93;;;;;;;6.07;98.63;98646.97;1765537;81;25571;-75
2022/01/04 10:25:08;;;;;;;15.48;9.05;;;;;;;6.09;98.58;98643.41;1766774;81;25736;-74
2022/01/04 10:27:45;;;;;;;14.23;9.93;;;;;;;6.08;98.38;98636.45;1766742;81;27336;-74
2022/01/04 10:30:32;;;;;;;15.72;9.38;;;;;;;6.09;98.36;98620.59;1766612;81;25396;-74
2022/01/04 10:33:07;;;;;;;17.23;8.80;;;;;;;6.08;98.15;98618.47;1765673;81;26466;-74
2022/01/04 10:35:49;;;;;;;14.73;9.28;;;;;;;6.09;98.26;98617.91;1766341;81;25908;-74
2022/01/04 10:38:29;;;;;;;17.60;9.05;;;;;;;6.11;98.28;98621.87;1756145;81;25453;-73
2022/01/04 10:41:07;;;;;;;;;;;;;;;6.09;98.07;98611.98;1754758;81;27339;-73
2022/01/04 10:43:44;;;;;;;15.38;9.05;;;;;;;6.11;98.24;98613.00;1752253;81;26213;-75
2022/01/04 10:46:15;;;;;;;18.32;9.45;;;;;;;6.09;98.29;98613.32;1752305;81;25709;-75
2022/01/04 10:48:46;;;;;;;15.63;8.80;;;;;;;6.11;98.30;98613.81;1751999;81;25646;-73
2022/01/04 10:51:24;;;;;;;17.80;9.40;;;;;;;6.12;98.31;98608.66;1752629;81;25594;-74
2022/01/04 10:54:00;;;;;;;13.88;8.45;;;;;;;6.14;98.17;98614.49;1751539;81;27367;-74
2022/01/04 10:56:31;;;;;;;16.37;8.75;;;;;;;6.14;98.14;98602.97;1728544;81;25598;-72
2022/01/04 10:59:02;;;;;;;16.62;8.45;;;;;;;6.15;98.28;98601.31;1752347;81;25551;-72
2022/01/04 11:01:42;;;;;;;19.17;8.63;;;;;;;6.17;98.55;98602.34;1750517;81;25660;-73
2022/01/04 11:04:18;;;;;;;14.00;8.50;;;;;;;6.21;98.67;98595.77;1734302;82;25797;-72
2022/01/04 11:06:47;;;;;;;13.10;8.35;;;;;;;6.19;98.35;98593.41;1734103;82;27368;-73
2022/01/04 11:09:14;;;;;;;13.10;8.58;;;;;;;6.21;98.50;98589.84;1734438;82;25734;-74
2022/01/04 11:11:41;;;;;;;13.35;8.75;;;;;;;6.17;98.30;98571.46;1722335;82;25417;-73
2022/01/04 11:14:11;;;;;;;17.37;9.18;;;;;;;6.16;98.37;98565.85;1715145;83;26275;-73
2022/01/04 11:16:38;;;;;;;13.38;8.00;;;;;;;6.18;98.72;98560.97;1715370;83;25729;-73
2022/01/04 11:19:04;;;;;;;17.85;9.38;;;;;;;6.21;99.12;98556.84;1715167;83;27350;-73
2022/01/04 11:21:38;;;;;;;16.05;9.08;;;;;;;6.24;99.03;98556.20;1715137;83;25751;-73
2022/01/04 11:24:08;;;;;;;20.20;10.75;;;;;;;6.23;98.76;98546.03;1714587;83;25663;-72
2022/01/04 11:26:42;;;;;;;20.00;10.70;;;;;;;6.24;98.91;98548.15;1715002;83;25837;-72
2022/01/04 11:29:10;;;;;;;18.62;10.30;;;;;;;6.24;98.84;98540.88;1715215;83;25462;-73
2022/01/04 11:31:45;;;;;;;17.07;9.90;;;;;;;6.22;98.78;98531.02;1715103;83;27868;-72
2022/01/04 11:35:05;;;;;;;17.20;10.00;;;;;;;6.21;99.07;98526.74;1714871;83;25635;-71
2022/01/04 11:37:32;;;;;;;15.83;9.15;;;;;;;6.21;99.08;98520.03;1734405;80;25764;-72
2022/01/04 11:39:58;;;;;;;17.05;9.73;;;;;;;6.22;99.35;98509.53;1758196;80;25912;-72